Terminal Aerodrome Forecast
Issued by NWS Blacksburg, VA

Home | Current Version | Previous Version | Text Only | Print | Product List | Glossary On
Versions: 1 2 3 4 5 6 7 8 9 10 11 12 13 14 15 16 17 18 19 20 21 22 23 24 25 26 27 28 29 30 31 32 33 34 35 36 37 38 39 40 41 42
000
FTUS41 KRNK 071140
TAFROA
TAF
KROA 071140Z 0712/0812 31009KT P6SM SKC
     FM072100 31005KT P6SM SCT150
     FM080500 00000KT P6SM BKN040 OVC150=

USA.gov is the U.S. government's official web portal to all federal, state and local government web resources and services.